Tabora, Tabora Airport (HTTB)

NameTabora Airport
CityTabora
CountryUnited Republic of Tanzania
ICAOHTTB
IATATBO
Altitude1179 m
CoordinatesGoogle Map
Live Air TrafficLiveATC.net
METARHTTB 090400Z 10010KT CAVOK 18/12 Q1019 NOSIG
2019-08-09 04:00:00 Wind: East (100°) 5.14 m/s - Visibility: > 10000 m - Weather: CAVOK - Temperature: 18 °C - Dew point: 12 °C - Humidity: 68.1% - Pressure: 1019 hPa

Sorry, no flights used the airport in this database.